createdAt,value
2023-02-22T00:02:29.247Z,100448.53
2023-02-22T00:05:31.540Z,100452.03
2023-02-22T00:08:36.004Z,100439.91
2023-02-22T00:11:38.525Z,100445.91
2023-02-22T00:14:40.345Z,100437.16
2023-02-22T00:17:42.457Z,100436.38
2023-02-22T00:20:44.328Z,100431.25
2023-02-22T00:23:47.637Z,100423.28
2023-02-22T00:26:55.395Z,100423.38
2023-02-22T00:29:56.815Z,100414.75
2023-02-22T00:32:59.600Z,100413.00
2023-02-22T00:36:01.046Z,100411.66
2023-02-22T00:39:02.440Z,100404.56
2023-02-22T00:42:04.066Z,100401.28
2023-02-22T00:45:06.108Z,100391.91
2023-02-22T00:48:10.694Z,100401.44
2023-02-22T00:51:12.115Z,100390.69
2023-02-22T00:54:14.352Z,100399.97
2023-02-22T00:57:18.418Z,100393.13
2023-02-22T01:00:23.908Z,100393.84
2023-02-22T01:03:26.010Z,100390.72
2023-02-22T01:06:29.228Z,100391.63
2023-02-22T01:09:32.714Z,100400.53
2023-02-22T01:12:35.085Z,100388.34
2023-02-22T01:15:39.569Z,100394.53
2023-02-22T01:18:41.406Z,100397.16
2023-02-22T01:21:43.160Z,100381.53
2023-02-22T01:24:44.532Z,100379.56
2023-02-22T01:27:46.547Z,100382.19
2023-02-22T01:30:48.490Z,100377.09
2023-02-22T01:33:51.053Z,100376.28
2023-02-22T01:36:52.444Z,100376.44
2023-02-22T01:39:53.843Z,100372.16
2023-02-22T01:42:57.726Z,100373.25
2023-02-22T01:46:22.511Z,100374.13
2023-02-22T01:49:32.428Z,100371.41
2023-02-22T01:52:33.832Z,100374.78
2023-02-22T01:55:35.824Z,100361.72
2023-02-22T01:58:39.857Z,100358.19
2023-02-22T02:01:45.140Z,100358.19
2023-02-22T02:04:46.608Z,100360.94
2023-02-22T02:07:49.251Z,100360.91
2023-02-22T02:10:56.468Z,100353.97
2023-02-22T02:13:58.542Z,100354.81
2023-02-22T02:17:02.290Z,100352.19
2023-02-22T02:20:15.341Z,100357.53
2023-02-22T02:23:44.649Z,100347.16
2023-02-22T02:27:11.444Z,100337.88
2023-02-22T02:30:41.161Z,100346.75
2023-02-22T02:33:51.739Z,100332.84
2023-02-22T02:37:10.858Z,100341.66
2023-02-22T02:40:17.766Z,100336.47
2023-02-22T02:43:29.231Z,100325.09
2023-02-22T02:46:51.904Z,100327.53
2023-02-22T02:50:02.908Z,100324.00
2023-02-22T02:53:07.980Z,100329.16
2023-02-22T02:56:09.456Z,100330.00
2023-02-22T02:59:43.602Z,100328.47
2023-02-22T03:02:58.076Z,100336.84
2023-02-22T03:06:29.183Z,100327.03
2023-02-22T03:09:45.831Z,100324.75
2023-02-22T03:13:09.602Z,100331.13
2023-02-22T03:16:32.997Z,100327.13
2023-02-22T03:19:42.703Z,100324.81
2023-02-22T03:23:11.813Z,100325.81
2023-02-22T03:26:23.798Z,100326.75
2023-02-22T03:29:35.390Z,100318.09
2023-02-22T03:32:43.907Z,100318.09
2023-02-22T03:35:59.891Z,100319.78
2023-02-22T03:39:04.200Z,100323.16
2023-02-22T03:42:12.527Z,100328.28
2023-02-22T03:45:17.186Z,100309.00
2023-02-22T03:48:39.424Z,100320.22
2023-02-22T03:51:42.487Z,100309.81
2023-02-22T03:54:44.306Z,100313.28
2023-02-22T03:57:50.184Z,100315.06
2023-02-22T04:00:53.176Z,100315.00
2023-02-22T04:03:54.855Z,100306.31
2023-02-22T04:06:56.681Z,100308.84
2023-02-22T04:09:58.427Z,100319.31
2023-02-22T04:13:00.709Z,100310.56
2023-02-22T04:16:02.353Z,100315.88
2023-02-22T04:19:03.847Z,100318.47
2023-02-22T04:22:05.311Z,100321.03
2023-02-22T04:25:10.105Z,100320.16
2023-02-22T04:28:11.637Z,100321.03
2023-02-22T04:31:21.099Z,100323.56
2023-02-22T04:34:23.897Z,100320.72
2023-02-22T04:37:25.600Z,100319.59
2023-02-22T04:40:27.828Z,100318.59
2023-02-22T04:43:29.238Z,100320.31
2023-02-22T04:46:51.209Z,100306.44
2023-02-22T04:49:52.621Z,100318.47
2023-02-22T04:52:54.055Z,100306.34
2023-02-22T04:55:56.603Z,100301.16
2023-02-22T04:58:58.291Z,100296.84
2023-02-22T05:02:00.791Z,100302.94
2023-02-22T05:05:02.229Z,100309.81
2023-02-22T05:08:03.835Z,100300.16
2023-02-22T05:11:05.599Z,100300.94
2023-02-22T05:14:07.767Z,100307.91
2023-02-22T05:17:09.141Z,100307.13
2023-02-22T05:20:21.630Z,100302.88
2023-02-22T05:23:23.079Z,100300.19
2023-02-22T05:26:24.563Z,100300.16
2023-02-22T05:29:25.972Z,100297.41
2023-02-22T05:32:27.915Z,100301.75
2023-02-22T05:35:29.645Z,100294.81
2023-02-22T05:38:31.056Z,100285.28
2023-02-22T05:41:32.519Z,100289.72
2023-02-22T05:44:33.962Z,100287.19
2023-02-22T05:47:35.349Z,100292.34
2023-02-22T05:50:36.787Z,100294.13
2023-02-22T05:53:38.207Z,100293.94
2023-02-22T05:56:39.984Z,100292.34
2023-02-22T05:59:41.434Z,100286.22
2023-02-22T06:02:42.829Z,100283.44
2023-02-22T06:05:44.393Z,100285.94
2023-02-22T06:08:46.200Z,100289.44
2023-02-22T06:11:47.686Z,100291.19
2023-02-22T06:14:49.083Z,100292.84
2023-02-22T06:17:51.239Z,100290.44
2023-02-22T06:20:53.190Z,100294.06
2023-02-22T06:23:54.625Z,100292.31
2023-02-22T06:26:57.789Z,100292.31
2023-02-22T06:30:00.346Z,100307.94
2023-02-22T06:33:01.745Z,100307.22
2023-02-22T06:36:03.620Z,100304.53
2023-02-22T06:39:04.995Z,100323.72
2023-02-22T06:42:06.440Z,100322.19
2023-02-22T06:45:08.761Z,100316.97
2023-02-22T06:48:10.265Z,100323.88
2023-02-22T06:51:11.714Z,100332.50
2023-02-22T06:54:13.428Z,100337.91
2023-02-22T06:57:14.883Z,100332.53
2023-02-22T07:00:19.146Z,100338.63
2023-02-22T07:03:20.847Z,100344.88
2023-02-22T07:06:22.954Z,100334.28
2023-02-22T07:09:24.371Z,100341.09
2023-02-22T07:12:25.754Z,100349.72
2023-02-22T07:15:29.434Z,100348.78
2023-02-22T07:18:31.069Z,100353.06
2023-02-22T07:21:32.470Z,100348.69
2023-02-22T07:24:35.026Z,100356.50
2023-02-22T07:27:37.814Z,100344.16
2023-02-22T07:30:39.337Z,100351.13
2023-02-22T07:33:40.806Z,100350.03
2023-02-22T07:36:42.181Z,100347.34
2023-02-22T07:39:43.761Z,100354.28
2023-02-22T07:43:01.822Z,100351.53
2023-02-22T07:46:03.601Z,100353.06
2023-02-22T07:49:05.028Z,100351.22
2023-02-22T07:52:07.674Z,100345.84
2023-02-22T07:55:09.063Z,100348.38
2023-02-22T07:58:15.089Z,100342.81
2023-02-22T08:01:16.917Z,100340.72
2023-02-22T08:04:18.568Z,100343.06
2023-02-22T08:07:19.990Z,100342.09
2023-02-22T08:10:23.382Z,100331.50
2023-02-22T08:13:25.067Z,100341.00
2023-02-22T08:16:26.529Z,100333.63
2023-02-22T08:19:27.913Z,100338.69
2023-02-22T08:22:29.471Z,100335.63
2023-02-22T08:25:30.957Z,100340.59
2023-02-22T08:28:32.360Z,100340.34
2023-02-22T08:31:33.777Z,100331.66
2023-02-22T08:34:38.794Z,100344.59
2023-02-22T08:37:48.601Z,100333.16
2023-02-22T08:40:50.275Z,100336.41
2023-02-22T08:43:51.691Z,100336.13
2023-02-22T08:46:53.663Z,100340.47
2023-02-22T08:49:55.248Z,100341.25
2023-02-22T08:52:59.425Z,100341.06
2023-02-22T08:56:00.859Z,100333.03
2023-02-22T08:59:02.673Z,100338.19
2023-02-22T09:02:04.498Z,100341.81
2023-02-22T09:05:06.961Z,100342.13
2023-02-22T09:08:08.583Z,100340.03
2023-02-22T09:11:10.104Z,100341.03
2023-02-22T09:14:11.511Z,100339.06
2023-02-22T09:17:12.946Z,100337.34
2023-02-22T09:20:17.809Z,100331.16
2023-02-22T09:23:21.644Z,100328.97
2023-02-22T09:26:27.754Z,100325.59
2023-02-22T09:29:29.133Z,100322.06
2023-02-22T09:32:30.742Z,100321.78
2023-02-22T09:35:35.905Z,100315.41
2023-02-22T09:38:37.366Z,100311.44
2023-02-22T09:41:52.598Z,100317.25
2023-02-22T09:45:03.336Z,100314.56
2023-02-22T09:48:21.247Z,100306.50
2023-02-22T09:51:27.892Z,100308.09
2023-02-22T09:54:38.428Z,100306.78
2023-02-22T09:57:43.428Z,100302.59
2023-02-22T10:00:48.562Z,100295.13
2023-02-22T10:04:02.665Z,100301.09
2023-02-22T10:07:25.909Z,100292.53
2023-02-22T10:10:33.509Z,100294.97
2023-02-22T10:13:55.123Z,100282.16
2023-02-22T10:17:06.416Z,100282.16
2023-02-22T10:20:16.523Z,100282.28
2023-02-22T10:23:38.881Z,100276.66
2023-02-22T10:26:43.712Z,100276.38
2023-02-22T10:29:51.945Z,100279.22
2023-02-22T10:33:21.830Z,100273.53
2023-02-22T10:36:24.975Z,100275.06
2023-02-22T10:39:34.635Z,100277.81
2023-02-22T10:42:39.378Z,100269.06
2023-02-22T10:45:41.184Z,100274.44
2023-02-22T10:48:47.030Z,100268.03
2023-02-22T10:52:00.578Z,100271.75
2023-02-22T10:55:17.448Z,100265.03
2023-02-22T10:58:19.060Z,100264.88
2023-02-22T11:01:47.031Z,100266.88
2023-02-22T11:04:51.952Z,100267.09
2023-02-22T11:08:32.909Z,100263.81
2023-02-22T11:11:34.300Z,100261.94
2023-02-22T11:14:35.705Z,100251.00
2023-02-22T11:17:37.131Z,100250.06
2023-02-22T11:20:39.561Z,100252.38
2023-02-22T11:23:44.941Z,100246.50
2023-02-22T11:26:49.999Z,100238.22
2023-02-22T11:29:51.907Z,100237.47
2023-02-22T11:32:57.172Z,100233.47
2023-02-22T11:36:08.565Z,100228.56
2023-02-22T11:39:34.157Z,100220.03
2023-02-22T11:42:35.606Z,100205.00
2023-02-22T11:45:38.582Z,100206.22
2023-02-22T11:48:53.818Z,100203.56
2023-02-22T11:52:16.127Z,100204.38
2023-02-22T11:55:41.850Z,100198.44
2023-02-22T11:58:59.853Z,100194.97
2023-02-22T12:02:31.521Z,100183.69
2023-02-22T12:05:59.524Z,100188.50
2023-02-22T12:09:33.014Z,100182.28
2023-02-22T12:12:51.075Z,100172.59
2023-02-22T12:16:13.925Z,100180.66
2023-02-22T12:19:36.105Z,100176.56
2023-02-22T12:22:44.404Z,100171.03
2023-02-22T12:25:58.339Z,100169.41
2023-02-22T12:29:14.757Z,100164.72
2023-02-22T12:32:38.522Z,100160.75
2023-02-22T12:35:51.476Z,100167.44
2023-02-22T12:39:00.471Z,100162.44
2023-02-22T12:42:05.037Z,100164.75
2023-02-22T12:45:16.829Z,100153.16
2023-02-22T12:48:35.323Z,100157.28
2023-02-22T12:51:52.014Z,100154.50
2023-02-22T12:55:06.381Z,100156.44
2023-02-22T12:58:20.255Z,100141.22
2023-02-22T13:01:27.562Z,100144.63
2023-02-22T13:04:31.798Z,100144.00
2023-02-22T13:08:05.150Z,100142.59
2023-02-22T13:11:42.118Z,100129.97
2023-02-22T13:15:01.037Z,100137.13
2023-02-22T13:18:26.780Z,100135.88
2023-02-22T13:21:42.130Z,100135.06
2023-02-22T13:25:10.051Z,100131.63
2023-02-22T13:28:22.061Z,100125.63
2023-02-22T13:31:50.391Z,100128.75
2023-02-22T13:35:13.415Z,100124.78
2023-02-22T13:38:37.595Z,100130.38
2023-02-22T13:41:51.408Z,100129.66
2023-02-22T13:45:23.834Z,100117.31
2023-02-22T13:48:46.615Z,100121.91
2023-02-22T13:51:55.009Z,100113.44
2023-02-22T13:55:01.131Z,100110.03
2023-02-22T13:58:08.705Z,100114.50
2023-02-22T14:01:52.828Z,100109.41
2023-02-22T14:04:54.273Z,100113.50
2023-02-22T14:07:55.953Z,100115.94
2023-02-22T14:10:59.189Z,100116.88
2023-02-22T14:14:03.185Z,100111.41
2023-02-22T14:17:21.707Z,100109.59
2023-02-22T14:20:31.074Z,100108.91
2023-02-22T14:23:40.641Z,100104.84
2023-02-22T14:26:55.065Z,100104.66
2023-02-22T14:30:00.329Z,100098.97
2023-02-22T14:33:02.542Z,100107.13
2023-02-22T14:36:04.160Z,100101.78
2023-02-22T14:39:12.666Z,100102.56
2023-02-22T14:42:17.768Z,100099.81
2023-02-22T14:45:35.278Z,100104.66
2023-02-22T14:48:42.837Z,100103.91
2023-02-22T14:51:55.607Z,100099.72
2023-02-22T14:55:22.238Z,100100.56
2023-02-22T14:58:31.909Z,100096.09
2023-02-22T15:01:50.856Z,100094.75
2023-02-22T15:04:56.136Z,100100.34
2023-02-22T15:08:01.010Z,100092.91
2023-02-22T15:11:02.430Z,100085.00
2023-02-22T15:14:25.779Z,100100.94
2023-02-22T15:17:27.643Z,100097.03
2023-02-22T15:20:29.802Z,100100.28
2023-02-22T15:23:41.681Z,100098.22
2023-02-22T15:27:00.118Z,100092.50
2023-02-22T15:30:05.520Z,100086.28
2023-02-22T15:33:16.572Z,100090.91
2023-02-22T15:36:20.345Z,100085.28
2023-02-22T15:39:25.428Z,100083.91
2023-02-22T15:42:29.397Z,100079.72
2023-02-22T15:45:32.357Z,100078.34
2023-02-22T15:48:35.592Z,100081.41
2023-02-22T15:51:42.269Z,100079.19
2023-02-22T15:54:48.449Z,100081.09
2023-02-22T15:57:50.718Z,100079.44
2023-02-22T16:01:06.273Z,100085.22
2023-02-22T16:04:16.919Z,100078.59
2023-02-22T16:07:21.131Z,100075.41
2023-02-22T16:10:27.197Z,100073.69
2023-02-22T16:13:33.163Z,100077.53
2023-02-22T16:16:40.586Z,100088.75
2023-02-22T16:19:44.997Z,100080.72
2023-02-22T16:22:50.861Z,100088.66
2023-02-22T16:26:23.238Z,100100.19
2023-02-22T16:29:26.571Z,100098.50
2023-02-22T16:32:28.041Z,100101.16
2023-02-22T16:35:29.683Z,100103.09
2023-02-22T16:38:32.769Z,100105.13
2023-02-22T16:41:34.377Z,100114.88
2023-02-22T16:44:35.772Z,100112.25
2023-02-22T16:47:37.413Z,100108.06
2023-02-22T16:50:38.814Z,100112.13
2023-02-22T16:53:40.253Z,100116.06
2023-02-22T16:56:41.710Z,100121.28
2023-02-22T16:59:43.335Z,100117.84
2023-02-22T17:02:45.254Z,100121.75
2023-02-22T17:05:46.806Z,100127.34
2023-02-22T17:08:51.776Z,100117.06
2023-02-22T17:11:54.151Z,100118.00
2023-02-22T17:14:55.803Z,100124.38
2023-02-22T17:17:57.231Z,100131.53
2023-02-22T17:20:58.647Z,100139.97
2023-02-22T17:24:00.140Z,100135.19
2023-02-22T17:27:02.017Z,100137.81
2023-02-22T17:30:04.712Z,100142.38
2023-02-22T17:33:09.006Z,100147.13
2023-02-22T17:36:10.403Z,100147.13
2023-02-22T17:39:13.345Z,100153.47
2023-02-22T17:42:15.435Z,100148.47
2023-02-22T17:45:17.127Z,100147.84
2023-02-22T17:48:18.557Z,100155.28
2023-02-22T17:51:21.382Z,100146.75
2023-02-22T17:54:23.001Z,100160.25
2023-02-22T17:57:25.173Z,100157.94
2023-02-22T18:00:33.229Z,100150.38
2023-02-22T18:03:34.732Z,100160.09
2023-02-22T18:06:37.975Z,100162.22
2023-02-22T18:09:39.650Z,100162.47
2023-02-22T18:12:43.121Z,100168.69
2023-02-22T18:15:46.216Z,100163.41
2023-02-22T18:18:49.376Z,100164.47
2023-02-22T18:21:51.057Z,100163.88
2023-02-22T18:24:56.871Z,100165.00
2023-02-22T18:28:02.563Z,100163.44
2023-02-22T18:31:16.058Z,100172.22
2023-02-22T18:34:17.586Z,100173.19
2023-02-22T18:37:20.390Z,100172.41
2023-02-22T18:40:21.820Z,100170.69
2023-02-22T18:43:23.252Z,100166.38
2023-02-22T18:46:25.365Z,100174.25
2023-02-22T18:49:26.955Z,100172.94
2023-02-22T18:52:30.898Z,100163.50
2023-02-22T18:55:34.627Z,100158.47
2023-02-22T18:58:38.493Z,100167.38
2023-02-22T19:01:40.817Z,100166.63
2023-02-22T19:04:44.067Z,100169.44
2023-02-22T19:07:45.540Z,100164.28
2023-02-22T19:10:49.445Z,100170.63
2023-02-22T19:13:53.710Z,100168.91
2023-02-22T19:16:58.973Z,100162.94
2023-02-22T19:20:00.354Z,100167.41
2023-02-22T19:23:02.303Z,100168.47
2023-02-22T19:26:04.328Z,100166.13
2023-02-22T19:29:08.329Z,100174.06
2023-02-22T19:32:11.328Z,100167.19
2023-02-22T19:35:26.025Z,100166.28
2023-02-22T19:38:27.688Z,100168.88
2023-02-22T19:41:29.706Z,100165.38
2023-02-22T19:44:32.850Z,100169.88
2023-02-22T19:47:34.398Z,100164.84
2023-02-22T19:50:35.940Z,100165.00
2023-02-22T19:53:41.598Z,100168.53
2023-02-22T19:56:43.173Z,100166.81
2023-02-22T19:59:44.848Z,100164.44
2023-02-22T20:02:46.237Z,100163.81
2023-02-22T20:05:47.685Z,100164.75
2023-02-22T20:08:50.924Z,100170.03
2023-02-22T20:11:52.349Z,100165.94
2023-02-22T20:14:53.727Z,100168.28
2023-02-22T20:17:55.648Z,100167.00
2023-02-22T20:20:57.040Z,100172.66
2023-02-22T20:24:04.535Z,100172.97
2023-02-22T20:27:06.295Z,100186.41
2023-02-22T20:30:10.358Z,100170.84
2023-02-22T20:33:13.468Z,100171.81
2023-02-22T20:36:18.386Z,100170.91
2023-02-22T20:39:19.915Z,100179.91
2023-02-22T20:42:21.310Z,100173.16
2023-02-22T20:45:23.140Z,100179.59
2023-02-22T20:48:24.604Z,100180.38
2023-02-22T20:51:27.461Z,100184.72
2023-02-22T20:54:28.913Z,100182.31
2023-02-22T20:57:30.697Z,100190.22
2023-02-22T21:00:32.150Z,100183.91
2023-02-22T21:03:34.682Z,100188.97
2023-02-22T21:06:37.741Z,100189.88
2023-02-22T21:09:40.274Z,100190.03
2023-02-22T21:12:42.737Z,100188.19
2023-02-22T21:15:46.954Z,100183.91
2023-02-22T21:18:53.885Z,100183.00
2023-02-22T21:21:56.851Z,100186.28
2023-02-22T21:24:58.756Z,100187.84
2023-02-22T21:28:00.152Z,100185.16
2023-02-22T21:31:06.944Z,100186.97
2023-02-22T21:34:11.992Z,100187.97
2023-02-22T21:37:17.944Z,100186.94
2023-02-22T21:40:19.610Z,100196.34
2023-02-22T21:43:21.088Z,100194.28
2023-02-22T21:46:22.978Z,100191.38
2023-02-22T21:49:25.661Z,100185.09
2023-02-22T21:52:27.390Z,100187.59
2023-02-22T21:55:29.674Z,100191.09
2023-02-22T21:58:31.595Z,100191.88
2023-02-22T22:01:35.763Z,100185.56
2023-02-22T22:04:37.224Z,100189.69
2023-02-22T22:07:38.609Z,100187.88
2023-02-22T22:10:40.012Z,100185.97
2023-02-22T22:13:42.088Z,100184.09
2023-02-22T22:16:46.780Z,100182.38
2023-02-22T22:19:48.872Z,100180.69
2023-02-22T22:22:50.312Z,100184.19
2023-02-22T22:25:51.748Z,100178.16
2023-02-22T22:28:56.190Z,100181.59
2023-02-22T22:31:57.880Z,100177.19
2023-02-22T22:34:59.368Z,100181.59
2023-02-22T22:38:01.058Z,100188.59
2023-02-22T22:41:05.453Z,100180.69
2023-02-22T22:44:09.433Z,100182.47
2023-02-22T22:47:13.939Z,100178.94
2023-02-22T22:50:18.819Z,100174.47
2023-02-22T22:53:20.214Z,100183.09
2023-02-22T22:56:26.180Z,100181.50
2023-02-22T22:59:28.665Z,100175.50
2023-02-22T23:02:30.857Z,100180.78
2023-02-22T23:05:38.356Z,100184.44
2023-02-22T23:08:45.872Z,100179.34
2023-02-22T23:11:50.734Z,100183.56
2023-02-22T23:14:52.470Z,100179.16
2023-02-22T23:17:59.128Z,100187.06
2023-02-22T23:21:05.257Z,100186.28
2023-02-22T23:24:06.762Z,100186.28
2023-02-22T23:27:10.580Z,100184.44
2023-02-22T23:30:15.326Z,100183.56
2023-02-22T23:33:16.713Z,100184.56
2023-02-22T23:36:19.578Z,100181.91
2023-02-22T23:39:22.703Z,100175.75
2023-02-22T23:42:24.095Z,100182.84
2023-02-22T23:45:25.491Z,100181.09
2023-02-22T23:48:29.931Z,100181.97
2023-02-22T23:51:39.126Z,100184.59
2023-02-22T23:54:43.742Z,100173.25
2023-02-22T23:57:45.297Z,100187.25
